Time;durP1;ratioP1;P1;durP2;ratioP2;P2;SDS_P1;SDS_P2;PMS_P1;PMS_P2;Temp;Humidity;BMP_temperature;BMP_pressure;BME280_temperature;BME280_humidity;BME280_pressure;Samples;Min_cycle;Max_cycle;Signal;HPM_P1;HPM_P2
2023/07/26 00:01:44;;;;;;;11.85;2.67;;;11.00;90.30;;;;;;5061879;28;20044;-77
2023/07/26 00:04:11;;;;;;;8.82;2.63;;;11.00;90.40;;;;;;5069117;28;20076;-77
2023/07/26 00:06:38;;;;;;;13.52;3.05;;;11.00;90.30;;;;;;5062878;28;20044;-77
2023/07/26 00:09:08;;;;;;;8.20;2.45;;;10.90;90.30;;;;;;5066893;28;20037;-77
2023/07/26 00:11:35;;;;;;;7.47;2.40;;;10.90;90.70;;;;;;5070169;28;20048;-77
2023/07/26 00:14:04;;;;;;;9.35;2.92;;;10.80;91.10;;;;;;5062280;28;20118;-77
2023/07/26 00:16:31;;;;;;;14.50;2.60;;;10.80;91.30;;;;;;5067778;28;20079;-77
2023/07/26 00:18:59;;;;;;;10.63;2.60;;;10.80;91.30;;;;;;5068410;28;20045;-77
2023/07/26 00:21:26;;;;;;;13.10;2.47;;;10.80;92.00;;;;;;5068678;28;20094;-77
2023/07/26 00:23:53;;;;;;;9.77;2.47;;;10.80;91.80;;;;;;5064053;28;20638;-77
2023/07/26 00:26:20;;;;;;;9.38;2.45;;;10.70;91.70;;;;;;5068935;28;20048;-77
2023/07/26 00:28:47;;;;;;;7.55;2.70;;;10.70;92.60;;;;;;5070002;28;20053;-77
2023/07/26 00:31:14;;;;;;;6.43;1.80;;;10.70;92.40;;;;;;5066588;28;20489;-77
2023/07/26 00:33:41;;;;;;;9.25;2.67;;;10.60;92.90;;;;;;5068228;28;20606;-77
2023/07/26 00:36:09;;;;;;;17.92;2.80;;;10.60;93.00;;;;;;5065188;28;20511;-77
2023/07/26 00:38:36;;;;;;;15.30;2.50;;;10.60;93.20;;;;;;5064778;28;20045;-77
2023/07/26 00:41:02;;;;;;;11.27;2.40;;;10.60;93.30;;;;;;5063088;28;20931;-78
2023/07/26 00:43:29;;;;;;;9.43;2.38;;;10.60;93.40;;;;;;5056929;28;20056;-77
2023/07/26 00:45:56;;;;;;;9.48;2.25;;;10.60;93.20;;;;;;5060566;28;20133;-76
2023/07/26 00:48:24;;;;;;;14.55;2.70;;;10.60;93.00;;;;;;5064741;28;20048;-77
2023/07/26 00:50:52;;;;;;;5.70;2.72;;;10.70;93.40;;;;;;5062236;28;20753;-78
2023/07/26 00:53:20;;;;;;;10.75;2.85;;;10.60;93.50;;;;;;5063902;28;20045;-77
2023/07/26 00:55:48;;;;;;;7.65;2.22;;;10.60;93.30;;;;;;5064871;28;20052;-77
2023/07/26 00:58:15;;;;;;;8.95;2.25;;;10.70;93.70;;;;;;5068064;28;20041;-77
2023/07/26 01:00:44;;;;;;;12.55;2.55;;;10.70;93.50;;;;;;5064038;28;20037;-77
2023/07/26 01:03:12;;;;;;;17.17;2.20;;;10.70;93.70;;;;;;5065375;28;20060;-77
2023/07/26 01:06:08;;;;;;;13.18;2.90;;;10.70;93.80;;;;;;5065148;28;20463;-77
2023/07/26 01:08:44;;;;;;;;;;;10.70;93.50;;;;;;5069153;28;20135;-77
2023/07/26 01:11:21;;;;;;;10.93;2.78;;;10.70;94.20;;;;;;5077054;28;20695;-77
2023/07/26 01:14:14;;;;;;;7.05;2.67;;;10.60;94.20;;;;;;5064600;28;20358;-77
2023/07/26 01:16:42;;;;;;;10.48;2.67;;;10.60;94.10;;;;;;5065836;28;20041;-77
2023/07/26 01:19:09;;;;;;;13.52;3.20;;;10.70;94.30;;;;;;5062818;28;20124;-77
2023/07/26 01:21:35;;;;;;;8.48;2.53;;;10.60;94.50;;;;;;5066763;28;20043;-77
2023/07/26 01:24:03;;;;;;;15.90;2.78;;;10.60;94.10;;;;;;5062139;28;20068;-77
2023/07/26 01:26:30;;;;;;;17.98;2.70;;;10.60;94.30;;;;;;5065920;28;20204;-77
2023/07/26 01:28:56;;;;;;;10.05;3.00;;;10.50;94.50;;;;;;5063874;28;20147;-77
2023/07/26 01:31:25;;;;;;;8.38;2.67;;;10.60;94.90;;;;;;5067281;28;20090;-77
2023/07/26 01:33:53;;;;;;;11.75;2.75;;;10.60;94.90;;;;;;5066054;28;20122;-78
2023/07/26 01:36:22;;;;;;;17.73;3.22;;;10.60;95.00;;;;;;5067447;28;20053;-78
2023/07/26 01:38:51;;;;;;;13.48;2.95;;;10.60;95.10;;;;;;5064031;28;20053;-77
2023/07/26 01:41:18;;;;;;;6.95;3.10;;;10.50;94.90;;;;;;5068300;28;20397;-77
2023/07/26 01:43:45;;;;;;;12.40;2.72;;;10.50;95.00;;;;;;5057294;28;20083;-77
2023/07/26 01:46:13;;;;;;;9.07;2.63;;;10.50;95.20;;;;;;5066518;28;20084;-77
2023/07/26 01:48:41;;;;;;;9.02;2.97;;;10.50;95.40;;;;;;5061222;28;20041;-77
2023/07/26 01:51:08;;;;;;;11.38;3.15;;;10.50;95.40;;;;;;5065836;28;20309;-77
2023/07/26 01:53:35;;;;;;;7.95;2.78;;;10.50;95.50;;;;;;5064669;28;20447;-77
2023/07/26 01:56:02;;;;;;;11.25;3.13;;;10.50;95.80;;;;;;5065890;28;20079;-77
2023/07/26 01:58:29;;;;;;;10.13;2.97;;;10.50;95.90;;;;;;5064001;28;20501;-77
2023/07/26 02:00:56;;;;;;;13.30;2.90;;;10.50;95.70;;;;;;5064770;28;20040;-78
2023/07/26 02:03:23;;;;;;;6.40;3.00;;;10.50;95.60;;;;;;5063676;28;20088;-78
2023/07/26 02:05:50;;;;;;;15.52;3.08;;;10.40;95.80;;;;;;5059433;28;20209;-78
2023/07/26 02:08:17;;;;;;;9.88;3.20;;;10.40;96.00;;;;;;5059925;28;20060;-78
2023/07/26 02:10:44;;;;;;;7.88;3.70;;;10.40;96.00;;;;;;5064528;28;20098;-78
2023/07/26 02:13:12;;;;;;;9.20;3.15;;;10.40;96.00;;;;;;5064645;28;20044;-78
2023/07/26 02:15:39;;;;;;;7.55;2.90;;;10.30;96.00;;;;;;5058327;28;20048;-78
2023/07/26 02:18:06;;;;;;;12.52;2.78;;;10.30;96.10;;;;;;5061411;28;20369;-78
2023/07/26 02:20:34;;;;;;;8.68;2.92;;;10.20;96.10;;;;;;5065728;28;20766;-78
2023/07/26 02:23:02;;;;;;;11.88;3.13;;;10.20;96.60;;;;;;5066868;28;20076;-78
2023/07/26 02:25:29;;;;;;;6.95;3.22;;;10.10;97.20;;;;;;5062885;28;20048;-78
2023/07/26 02:27:56;;;;;;;8.40;2.88;;;10.10;97.10;;;;;;5067356;28;20079;-77
2023/07/26 02:30:22;;;;;;;10.38;3.15;;;10.00;97.30;;;;;;5064199;28;20623;-77
2023/07/26 02:32:49;;;;;;;12.57;3.22;;;10.00;97.90;;;;;;5065055;28;20527;-77
2023/07/26 02:35:16;;;;;;;12.15;3.40;;;10.00;97.70;;;;;;5061618;28;20048;-77
2023/07/26 02:37:43;;;;;;;8.65;3.10;;;9.90;97.90;;;;;;5064822;28;20057;-78
2023/07/26 02:40:11;;;;;;;13.10;3.33;;;9.90;98.40;;;;;;5067843;28;20071;-78
2023/07/26 02:42:38;;;;;;;12.45;3.60;;;9.90;98.40;;;;;;5067345;28;20056;-78
2023/07/26 02:45:05;;;;;;;11.90;2.83;;;9.90;98.20;;;;;;5064176;28;20444;-78
2023/07/26 02:47:32;;;;;;;15.05;3.35;;;9.80;98.40;;;;;;5082132;28;20064;-78
2023/07/26 02:50:01;;;;;;;7.65;3.30;;;9.80;98.80;;;;;;5057639;28;20477;-78
2023/07/26 02:52:28;;;;;;;12.02;3.53;;;9.80;99.30;;;;;;5065237;28;20056;-78
2023/07/26 02:54:55;;;;;;;13.18;3.35;;;9.80;98.90;;;;;;5065552;28;20068;-78
2023/07/26 02:57:22;;;;;;;12.50;3.38;;;9.80;98.90;;;;;;5063652;28;20848;-78
2023/07/26 02:59:48;;;;;;;14.18;3.40;;;9.70;98.70;;;;;;5064515;28;20044;-79
2023/07/26 03:02:15;;;;;;;8.85;3.42;;;9.70;99.00;;;;;;5062321;28;20098;-78
2023/07/26 03:04:42;;;;;;;16.33;3.38;;;9.70;99.80;;;;;;5060692;28;20126;-78
2023/07/26 03:07:09;;;;;;;12.40;3.58;;;9.70;99.70;;;;;;5059589;28;20586;-78
2023/07/26 03:09:36;;;;;;;13.27;4.32;;;9.70;99.60;;;;;;5052800;28;20469;-78
2023/07/26 03:12:03;;;;;;;13.98;3.95;;;9.80;99.90;;;;;;5056653;28;20048;-78
2023/07/26 03:14:30;;;;;;;9.65;3.55;;;9.80;99.80;;;;;;5056836;28;21954;-78
2023/07/26 03:16:57;;;;;;;8.25;3.55;;;9.80;99.70;;;;;;5053516;28;20128;-78
2023/07/26 03:19:37;;;;;;;11.18;3.17;;;9.80;100.00;;;;;;5059814;28;20045;-78
2023/07/26 03:22:04;;;;;;;11.07;3.50;;;9.80;99.90;;;;;;5065758;28;20469;-77
2023/07/26 03:24:31;;;;;;;12.52;4.50;;;9.80;100.00;;;;;;5055344;28;20519;-78
2023/07/26 03:26:58;;;;;;;10.60;4.25;;;9.80;100.00;;;;;;5055748;28;20539;-78
2023/07/26 03:29:25;;;;;;;22.42;4.35;;;9.90;100.00;;;;;;5056322;28;20052;-78
2023/07/26 03:31:52;;;;;;;10.52;4.55;;;9.80;100.00;;;;;;5060752;28;20078;-78
2023/07/26 03:34:19;;;;;;;11.68;4.07;;;9.80;100.00;;;;;;5068286;28;20109;-78
2023/07/26 03:36:46;;;;;;;16.45;4.38;;;9.90;100.00;;;;;;5061196;28;20045;-78
2023/07/26 03:39:13;;;;;;;17.58;4.47;;;9.90;100.00;;;;;;5069660;28;20040;-78
2023/07/26 03:41:40;;;;;;;13.27;4.20;;;9.90;100.00;;;;;;5074780;28;20420;-78
2023/07/26 03:44:07;;;;;;;18.92;4.85;;;9.90;100.00;;;;;;5068525;28;20134;-78
2023/07/26 03:46:33;;;;;;;11.70;4.18;;;9.90;100.00;;;;;;5068294;28;20044;-78
2023/07/26 03:49:01;;;;;;;11.50;4.53;;;10.00;100.00;;;;;;5067530;28;20127;-78
2023/07/26 03:51:28;;;;;;;7.65;3.88;;;10.00;100.00;;;;;;5068040;28;20159;-78
2023/07/26 03:53:55;;;;;;;10.55;4.43;;;10.10;100.00;;;;;;5069996;28;20051;-79
2023/07/26 03:56:22;;;;;;;9.20;4.13;;;10.20;100.00;;;;;;5067088;28;20052;-78
2023/07/26 03:58:49;;;;;;;12.80;4.72;;;10.20;100.00;;;;;;5068543;28;20054;-78
2023/07/26 04:01:16;;;;;;;8.93;4.63;;;10.30;100.00;;;;;;5062385;28;20769;-78
2023/07/26 04:03:43;;;;;;;12.77;4.85;;;10.40;100.00;;;;;;5067128;28;20151;-78
2023/07/26 04:06:13;;;;;;;13.13;4.80;;;10.50;100.00;;;;;;5065333;28;20059;-78
2023/07/26 04:08:41;;;;;;;9.95;4.20;;;10.60;100.00;;;;;;5069781;28;20140;-78
2023/07/26 04:11:07;;;;;;;8.68;4.38;;;10.70;100.00;;;;;;5069508;28;20087;-78
2023/07/26 04:13:34;;;;;;;11.25;4.32;;;10.70;100.00;;;;;;5069792;28;20037;-78
2023/07/26 04:16:10;;;;;;;10.82;4.70;;;10.80;100.00;;;;;;5067245;28;20052;-78
2023/07/26 04:18:37;;;;;;;15.18;5.30;;;10.90;99.20;;;;;;5067498;28;20080;-78
2023/07/26 04:21:04;;;;;;;14.40;4.95;;;11.00;99.30;;;;;;5060850;28;20098;-78
2023/07/26 04:23:31;;;;;;;22.13;4.93;;;11.20;99.40;;;;;;5067158;28;20380;-79
2023/07/26 04:25:58;;;;;;;19.08;4.50;;;11.30;99.10;;;;;;5064264;28;20048;-79
2023/07/26 04:28:24;;;;;;;12.40;4.70;;;11.30;97.90;;;;;;5067044;28;20052;-78
2023/07/26 04:30:52;;;;;;;14.38;4.75;;;11.40;98.30;;;;;;5068741;28;20044;-78
2023/07/26 04:33:21;;;;;;;13.30;4.10;;;11.50;98.10;;;;;;5063586;28;20049;-79
2023/07/26 04:35:48;;;;;;;12.23;4.07;;;11.60;97.40;;;;;;5063703;28;20056;-78
2023/07/26 04:38:15;;;;;;;13.25;3.88;;;11.60;97.40;;;;;;5068115;28;20080;-79
2023/07/26 04:40:41;;;;;;;7.60;4.15;;;11.70;97.50;;;;;;5074191;28;20119;-78
2023/07/26 04:43:09;;;;;;;14.07;4.30;;;11.80;96.80;;;;;;5066398;28;20536;-77
2023/07/26 04:45:36;;;;;;;11.13;4.10;;;11.80;96.80;;;;;;5067342;28;20079;-78
2023/07/26 04:48:03;;;;;;;11.27;3.90;;;12.00;97.20;;;;;;5068680;28;20119;-78
2023/07/26 04:50:30;;;;;;;13.50;3.45;;;12.10;96.00;;;;;;5063205;28;20044;-79
2023/07/26 04:52:57;;;;;;;14.43;3.90;;;12.20;95.70;;;;;;5061816;28;20055;-79
2023/07/26 04:55:24;;;;;;;18.05;3.75;;;12.30;95.60;;;;;;5063851;28;20131;-79
2023/07/26 04:57:50;;;;;;;8.45;3.47;;;12.40;95.30;;;;;;5068688;28;20122;-78
2023/07/26 05:00:17;;;;;;;6.55;3.53;;;12.50;94.70;;;;;;5068704;28;20439;-78
2023/07/26 05:02:44;;;;;;;12.02;3.85;;;12.50;94.60;;;;;;5063299;28;20044;-78
2023/07/26 05:05:11;;;;;;;8.95;3.40;;;12.50;94.10;;;;;;5067636;28;20048;-78
2023/07/26 05:07:38;;;;;;;12.63;4.03;;;12.50;94.50;;;;;;5071420;28;20060;-77
2023/07/26 05:10:06;;;;;;;9.35;3.20;;;12.50;93.90;;;;;;5065417;28;20073;-78
2023/07/26 05:12:33;;;;;;;6.22;3.22;;;12.50;94.00;;;;;;5067310;28;20638;-78
2023/07/26 05:15:00;;;;;;;10.40;3.15;;;12.50;93.90;;;;;;5086890;28;20048;-78
2023/07/26 05:17:26;;;;;;;12.95;3.72;;;12.60;93.90;;;;;;5067561;28;20452;-78
2023/07/26 05:19:53;;;;;;;15.18;3.50;;;12.70;94.10;;;;;;5087492;28;20064;-78
2023/07/26 05:22:20;;;;;;;10.02;3.40;;;12.80;93.10;;;;;;5065470;28;20153;-78
2023/07/26 05:24:47;;;;;;;15.60;3.20;;;13.00;93.00;;;;;;5064444;28;20169;-78
2023/07/26 05:27:14;;;;;;;8.95;2.88;;;13.20;92.90;;;;;;5058223;28;20045;-78
2023/07/26 05:29:41;;;;;;;15.02;3.45;;;13.20;91.90;;;;;;5060397;28;20056;-78
2023/07/26 05:32:08;;;;;;;9.48;2.78;;;13.30;91.20;;;;;;5065279;28;20160;-78
2023/07/26 05:34:35;;;;;;;9.15;3.60;;;13.40;91.20;;;;;;5067627;28;20067;-79
2023/07/26 05:37:02;;;;;;;15.25;3.45;;;13.40;90.80;;;;;;5068276;28;20036;-78
2023/07/26 05:39:30;;;;;;;9.80;2.83;;;13.40;90.60;;;;;;5068612;28;20260;-78
2023/07/26 05:41:56;;;;;;;5.35;2.45;;;13.40;90.50;;;;;;5068852;28;20040;-78
2023/07/26 05:44:23;;;;;;;8.98;3.33;;;13.50;90.80;;;;;;5064905;28;20160;-79
2023/07/26 05:46:50;;;;;;;8.40;2.83;;;13.50;90.90;;;;;;5068710;28;20136;-79
2023/07/26 05:49:17;;;;;;;14.90;3.35;;;13.60;91.20;;;;;;5065978;28;20048;-77
2023/07/26 05:51:44;;;;;;;4.82;3.03;;;13.60;91.10;;;;;;5060506;28;20169;-77
2023/07/26 05:54:11;;;;;;;9.60;3.28;;;13.70;91.60;;;;;;5066357;28;20044;-77
2023/07/26 05:56:37;;;;;;;9.50;2.88;;;13.80;91.10;;;;;;5059367;28;20188;-76
2023/07/26 05:59:04;;;;;;;8.20;2.85;;;13.90;90.10;;;;;;5063673;28;20129;-76
2023/07/26 06:01:31;;;;;;;10.85;3.00;;;14.00;90.40;;;;;;5059093;28;20056;-76
2023/07/26 06:03:59;;;;;;;5.63;2.67;;;14.10;89.90;;;;;;5095374;28;20084;-76
2023/07/26 06:06:26;;;;;;;9.13;2.75;;;14.20;89.60;;;;;;5062414;28;20867;-76
2023/07/26 06:08:53;;;;;;;8.45;2.83;;;14.30;88.80;;;;;;5063517;28;20048;-76
2023/07/26 06:11:19;;;;;;;11.82;2.95;;;14.40;88.80;;;;;;5063315;28;20056;-77
2023/07/26 06:13:46;;;;;;;4.35;2.38;;;14.50;88.40;;;;;;5061779;28;20135;-76
2023/07/26 06:16:13;;;;;;;5.65;2.90;;;14.60;88.80;;;;;;5060958;28;20044;-77
2023/07/26 06:18:40;;;;;;;15.63;3.00;;;14.90;88.50;;;;;;5077586;28;20135;-76
2023/07/26 06:21:07;;;;;;;13.23;3.17;;;15.30;88.00;;;;;;5062175;28;20049;-76
2023/07/26 06:23:34;;;;;;;11.02;2.20;;;15.70;86.30;;;;;;5064892;28;20440;-77
2023/07/26 06:26:01;;;;;;;10.90;2.50;;;16.00;84.20;;;;;;5060348;28;20523;-77
2023/07/26 06:28:27;;;;;;;15.93;2.80;;;16.30;82.90;;;;;;5059933;28;20603;-77
2023/07/26 06:30:55;;;;;;;17.75;2.55;;;16.80;83.00;;;;;;5062446;28;20619;-77
2023/07/26 06:33:22;;;;;;;9.15;2.05;;;17.10;80.00;;;;;;5061856;28;20671;-79
2023/07/26 06:35:53;;;;;;;13.43;2.47;;;17.40;78.90;;;;;;5065916;28;20044;-81
2023/07/26 06:38:20;;;;;;;8.68;2.70;;;17.50;78.20;;;;;;5061807;28;20327;-78
2023/07/26 06:40:47;;;;;;;13.02;2.40;;;17.60;77.50;;;;;;5063478;28;20058;-79
2023/07/26 06:43:14;;;;;;;12.25;2.40;;;18.00;76.00;;;;;;5065880;28;20435;-79
2023/07/26 06:45:46;;;;;;;6.05;2.17;;;17.90;75.80;;;;;;5067082;28;20131;-79
2023/07/26 06:48:14;;;;;;;8.70;2.00;;;17.90;75.30;;;;;;5068040;28;20056;-80
2023/07/26 06:50:41;;;;;;;4.63;2.10;;;18.00;75.20;;;;;;5068392;28;20114;-80
2023/07/26 06:53:09;;;;;;;8.10;2.15;;;18.10;75.60;;;;;;5065853;28;20135;-79
2023/07/26 06:55:36;;;;;;;8.55;2.55;;;18.20;74.90;;;;;;5064828;28;20461;-79
2023/07/26 06:58:04;;;;;;;9.43;2.10;;;18.10;73.80;;;;;;5066776;28;20474;-80
2023/07/26 07:00:32;;;;;;;5.72;2.05;;;18.20;73.50;;;;;;5063628;28;20048;-78
2023/07/26 07:03:00;;;;;;;4.20;2.17;;;18.50;74.50;;;;;;5062289;28;20091;-78
2023/07/26 07:05:28;;;;;;;11.20;3.25;;;18.90;72.20;;;;;;5062212;28;20052;-77
2023/07/26 07:07:55;;;;;;;8.32;1.90;;;19.30;71.60;;;;;;5066601;28;20049;-77
2023/07/26 07:10:23;;;;;;;6.50;1.80;;;19.30;72.60;;;;;;5066040;28;20048;-79
2023/07/26 07:12:50;;;;;;;8.98;2.17;;;19.40;72.50;;;;;;5071722;28;20515;-78
2023/07/26 07:15:17;;;;;;;9.70;2.25;;;19.50;70.40;;;;;;5066324;28;20055;-79
2023/07/26 07:17:44;;;;;;;11.15;2.10;;;19.40;70.10;;;;;;5071720;28;20102;-85
2023/07/26 07:20:11;;;;;;;8.40;1.92;;;19.30;71.20;;;;;;5068452;28;20127;-82
2023/07/26 07:22:38;;;;;;;4.60;1.95;;;19.10;71.50;;;;;;5071105;28;20102;-80
2023/07/26 07:25:05;;;;;;;6.13;1.77;;;19.00;71.80;;;;;;5066282;28;20128;-81
2023/07/26 07:27:44;;;;;;;6.95;1.65;;;19.40;71.80;;;;;;5073259;28;20455;-85
2023/07/26 07:30:12;;;;;;;5.65;2.13;;;19.30;70.80;;;;;;5070144;28;20578;-83
2023/07/26 07:32:39;;;;;;;4.03;2.03;;;19.80;70.40;;;;;;5071442;28;20102;-81
2023/07/26 07:35:07;;;;;;;5.43;1.70;;;20.00;69.40;;;;;;5066860;28;20052;-79
2023/07/26 07:37:34;;;;;;;9.07;2.20;;;20.10;68.70;;;;;;5066610;28;20128;-78
2023/07/26 07:40:03;;;;;;;14.05;2.90;;;20.50;69.50;;;;;;5094077;28;20058;-76
2023/07/26 07:42:33;;;;;;;13.75;2.30;;;21.00;68.60;;;;;;5065782;28;20128;-75
2023/07/26 07:44:59;;;;;;;8.13;2.00;;;21.50;65.60;;;;;;5064586;28;20055;-75
2023/07/26 07:47:26;;;;;;;7.03;1.55;;;21.70;64.70;;;;;;5069508;28;20094;-77
2023/07/26 07:49:53;;;;;;;7.88;1.73;;;21.40;65.30;;;;;;5064192;28;20052;-75
2023/07/26 07:52:20;;;;;;;9.05;1.70;;;21.80;65.60;;;;;;5068040;28;20052;-79
2023/07/26 07:54:47;;;;;;;7.32;1.90;;;21.20;65.90;;;;;;5067262;28;20045;-80
2023/07/26 07:57:14;;;;;;;11.68;2.05;;;21.50;64.70;;;;;;5068587;28;20048;-80
2023/07/26 07:59:41;;;;;;;3.47;1.50;;;22.30;63.60;;;;;;5066443;28;20052;-80
2023/07/26 08:02:08;;;;;;;5.40;1.77;;;22.20;63.30;;;;;;5068921;28;20040;-80
2023/07/26 08:04:38;;;;;;;5.53;1.70;;;22.30;64.00;;;;;;5065585;28;20404;-80
2023/07/26 08:07:05;;;;;;;3.95;2.10;;;22.60;58.80;;;;;;5067698;28;20044;-80
2023/07/26 08:09:32;;;;;;;3.80;1.27;;;22.60;61.30;;;;;;5069281;28;20052;-80
2023/07/26 08:11:59;;;;;;;11.68;1.73;;;21.80;59.00;;;;;;5071180;28;20053;-80
2023/07/26 08:14:26;;;;;;;4.07;1.23;;;21.90;62.90;;;;;;5070779;28;20140;-80
2023/07/26 08:16:53;;;;;;;5.78;1.90;;;21.60;59.70;;;;;;5068989;28;20547;-80
2023/07/26 08:19:20;;;;;;;6.68;1.40;;;22.10;60.90;;;;;;5071498;28;20040;-81
2023/07/26 08:21:47;;;;;;;8.77;1.80;;;22.70;58.60;;;;;;5066257;28;20076;-80
2023/07/26 08:24:15;;;;;;;18.83;2.45;;;23.10;58.70;;;;;;5066748;28;20137;-80
2023/07/26 08:26:42;;;;;;;12.93;1.67;;;23.10;57.00;;;;;;5075632;28;20048;-82
2023/07/26 08:29:10;;;;;;;5.80;1.70;;;22.70;57.70;;;;;;5063651;28;20400;-82
2023/07/26 08:31:38;;;;;;;7.50;1.25;;;23.10;56.60;;;;;;5068636;28;20651;-82
2023/07/26 08:34:05;;;;;;;4.07;1.35;;;23.30;56.90;;;;;;5065498;28;20055;-80
2023/07/26 08:36:33;;;;;;;3.42;1.25;;;22.50;54.90;;;;;;5068478;28;20052;-80
2023/07/26 08:38:59;;;;;;;4.57;1.33;;;22.30;55.40;;;;;;5070354;28;20040;-81
2023/07/26 08:41:27;;;;;;;6.45;1.67;;;21.80;55.60;;;;;;5071448;28;20123;-79
2023/07/26 08:43:58;;;;;;;7.63;1.42;;;21.60;56.10;;;;;;5067022;28;20044;-79
2023/07/26 08:46:26;;;;;;;5.40;2.05;;;21.30;58.30;;;;;;5068162;28;20052;-80
2023/07/26 08:48:55;;;;;;;4.82;1.80;;;21.40;56.10;;;;;;5068256;28;20055;-80
2023/07/26 08:51:22;;;;;;;7.15;1.25;;;20.80;58.70;;;;;;5067528;28;20056;-80
2023/07/26 08:53:50;;;;;;;10.40;1.35;;;21.00;59.50;;;;;;5068264;28;20098;-81
2023/07/26 08:56:18;;;;;;;7.03;1.70;;;21.10;60.30;;;;;;5068988;28;20047;-82
2023/07/26 08:58:44;;;;;;;6.10;1.40;;;21.90;59.40;;;;;;5062036;28;20131;-81
2023/07/26 09:01:12;;;;;;;6.30;1.35;;;22.70;54.20;;;;;;5067533;28;20507;-83
2023/07/26 09:03:39;;;;;;;5.90;1.70;;;22.70;55.80;;;;;;5072668;28;20076;-80
2023/07/26 09:06:08;;;;;;;3.83;1.20;;;23.10;51.30;;;;;;5068647;28;20181;-81
2023/07/26 09:08:35;;;;;;;6.43;1.30;;;23.10;54.00;;;;;;5058410;28;20142;-80
2023/07/26 09:11:25;;;;;;;4.60;1.40;;;23.60;54.20;;;;;;5064142;28;20106;-80
2023/07/26 09:13:57;;;;;;;3.38;1.35;;;23.80;52.00;;;;;;5092880;28;20056;-81
2023/07/26 09:16:28;;;;;;;5.03;1.40;;;23.70;54.40;;;;;;5097972;28;20438;-80
2023/07/26 09:19:04;;;;;;;4.97;1.45;;;24.80;51.50;;;;;;5061675;28;20642;-78
2023/07/26 09:21:36;;;;;;;6.78;1.30;;;24.20;50.00;;;;;;5063496;28;20225;-79
2023/07/26 09:24:03;;;;;;;9.10;1.77;;;23.80;53.10;;;;;;5070718;28;20053;-80
2023/07/26 09:26:42;;;;;;;3.20;1.40;;;23.90;52.90;;;;;;5062125;28;20045;-78
2023/07/26 09:29:16;;;;;;;4.82;1.55;;;24.10;51.30;;;;;;5076031;28;20152;-80
2023/07/26 09:31:43;;;;;;;6.53;1.90;;;23.40;51.40;;;;;;5062974;28;20055;-79
2023/07/26 09:34:18;;;;;;;10.25;2.25;;;23.90;51.90;;;;;;5064529;28;20780;-80
2023/07/26 09:36:52;;;;;;;5.05;1.52;;;24.10;50.90;;;;;;5064987;28;20087;-80
2023/07/26 09:39:21;;;;;;;8.87;1.67;;;24.10;51.40;;;;;;5065650;28;20052;-77
2023/07/26 09:41:50;;;;;;;1.33;0.95;;;23.60;49.90;;;;;;5058169;28;20948;-79
2023/07/26 09:44:20;;;;;;;5.95;1.48;;;22.90;52.30;;;;;;5058207;28;20827;-79
2023/07/26 09:46:48;;;;;;;5.63;1.65;;;23.20;54.00;;;;;;5056527;28;20041;-79
2023/07/26 09:49:16;;;;;;;2.92;1.40;;;23.60;52.10;;;;;;5062443;28;20041;-78
2023/07/26 09:51:54;;;;;;;2.78;1.27;;;24.30;50.30;;;;;;5061373;28;20541;-79
2023/07/26 09:54:31;;;;;;;5.78;1.48;;;24.30;48.40;;;;;;5061561;28;20155;-78
2023/07/26 09:57:00;;;;;;;6.93;1.30;;;24.70;49.80;;;;;;5059257;28;20785;-78
2023/07/26 09:59:29;;;;;;;5.82;1.58;;;25.00;47.80;;;;;;5054089;28;20049;-78
2023/07/26 10:02:07;;;;;;;5.22;1.55;;;24.60;48.50;;;;;;5065315;28;20044;-78
2023/07/26 10:04:57;;;;;;;7.68;1.50;;;24.40;48.10;;;;;;5056991;28;20080;-80
2023/07/26 10:07:26;;;;;;;2.80;1.35;;;24.10;48.70;;;;;;5063402;28;20102;-79
2023/07/26 10:09:54;;;;;;;4.47;1.70;;;23.90;50.70;;;;;;5062943;28;20147;-79
2023/07/26 10:12:25;;;;;;;3.72;1.55;;;24.00;50.30;;;;;;5063649;28;20106;-79
2023/07/26 10:14:56;;;;;;;2.70;1.23;;;24.50;50.30;;;;;;5065499;28;20646;-78
2023/07/26 10:17:26;;;;;;;3.67;1.60;;;25.50;49.20;;;;;;5059181;28;20044;-79
2023/07/26 10:19:55;;;;;;;8.65;1.67;;;26.20;48.20;;;;;;5053162;28;20040;-80
2023/07/26 10:22:23;;;;;;;3.05;1.08;;;26.50;47.90;;;;;;5061545;28;20052;-80
2023/07/26 10:24:50;;;;;;;3.38;1.38;;;26.90;46.50;;;;;;5059212;28;20125;-78
2023/07/26 10:27:17;;;;;;;3.97;1.40;;;26.20;43.80;;;;;;5055734;28;20137;-81
2023/07/26 10:29:44;;;;;;;7.32;1.60;;;25.70;47.60;;;;;;5064983;28;20067;-83
2023/07/26 10:32:11;;;;;;;4.15;1.50;;;26.00;46.50;;;;;;5064008;28;20124;-85
2023/07/26 10:34:40;;;;;;;3.15;1.13;;;26.40;46.50;;;;;;5060446;28;20048;-78
2023/07/26 10:37:14;;;;;;;4.18;1.50;;;26.30;42.50;;;;;;5056139;28;20090;-77
2023/07/26 10:39:42;;;;;;;2.63;1.17;;;26.00;44.70;;;;;;5055664;28;20094;-76
2023/07/26 10:42:24;;;;;;;2.20;1.42;;;24.70;44.80;;;;;;5065370;28;20174;-78
2023/07/26 10:45:01;;;;;;;3.20;1.33;;;24.00;46.00;;;;;;5064898;28;20052;-77
2023/07/26 10:47:29;;;;;;;9.65;5.03;;;23.30;46.90;;;;;;5054447;28;20139;-78
2023/07/26 10:50:05;;;;;;;7.25;1.88;;;23.00;50.30;;;;;;5064783;28;20048;-78
2023/07/26 10:52:37;;;;;;;9.18;1.77;;;21.90;50.80;;;;;;5059589;28;20307;-77
2023/07/26 10:55:34;;;;;;;3.20;1.55;;;21.30;53.70;;;;;;5069938;28;20048;-77
2023/07/26 10:58:12;;;;;;;4.15;1.25;;;21.20;53.10;;;;;;5097843;27;20052;-76
2023/07/26 11:00:39;;;;;;;4.80;1.70;;;20.80;53.40;;;;;;5065417;28;20466;-77
2023/07/26 11:03:06;;;;;;;2.72;1.10;;;20.60;54.30;;;;;;5067251;28;20051;-77
2023/07/26 11:05:38;;;;;;;5.75;1.40;;;20.40;54.90;;;;;;5063396;28;20080;-77
2023/07/26 11:08:06;;;;;;;3.53;1.80;;;20.10;58.10;;;;;;5060495;28;20471;-79
2023/07/26 11:10:48;;;;;;;6.32;1.63;;;19.20;61.20;;;;;;5083991;28;20044;-77
2023/07/26 11:13:34;;;;;;;9.75;2.42;;;18.10;67.00;;;;;;5075832;28;20064;-76
2023/07/26 11:16:05;;;;;;;7.90;1.80;;;17.30;76.40;;;;;;5088809;27;20052;-76
2023/07/26 11:18:44;;;;;;;3.88;1.63;;;16.60;81.30;;;;;;5065233;28;20701;-76
2023/07/26 11:21:15;;;;;;;12.15;1.98;;;16.10;84.60;;;;;;5062720;28;20049;-78
2023/07/26 11:23:43;;;;;;;0.00;0.00;;;15.40;85.00;;;;;;5101903;27;20140;-82
2023/07/26 11:26:09;;;;;;;0.00;0.00;;;14.80;83.40;;;;;;5062631;28;20056;-81
2023/07/26 11:28:38;;;;;;;0.00;0.00;;;14.20;89.40;;;;;;5067199;28;20075;-81
2023/07/26 11:31:06;;;;;;;0.00;0.00;;;14.00;93.70;;;;;;5078328;28;20048;-81
2023/07/26 11:33:36;;;;;;;0.00;0.00;;;13.90;94.20;;;;;;5063712;28;20694;-81
2023/07/26 11:36:05;;;;;;;0.00;0.00;;;13.90;96.70;;;;;;5064514;28;20045;-82
2023/07/26 11:38:32;;;;;;;0.00;0.00;;;14.00;98.00;;;;;;5073508;28;20488;-80
2023/07/26 11:41:00;;;;;;;0.00;0.00;;;14.10;97.70;;;;;;5059457;28;20044;-75
2023/07/26 11:43:28;;;;;;;0.00;0.00;;;14.20;95.70;;;;;;5062645;28;20638;-74
2023/07/26 11:45:57;;;;;;;0.00;0.00;;;14.30;98.80;;;;;;5093041;27;20059;-75
2023/07/26 11:48:29;;;;;;;0.00;0.00;;;14.70;100.00;;;;;;5052435;28;20048;-75
2023/07/26 11:51:03;;;;;;;0.00;0.00;;;15.10;97.90;;;;;;5063813;28;20055;-75
2023/07/26 11:53:36;;;;;;;0.00;0.00;;;15.10;98.30;;;;;;5067686;28;20079;-76
2023/07/26 11:56:15;;;;;;;0.00;0.00;;;15.00;96.10;;;;;;5057676;28;20041;-75
2023/07/26 11:58:43;;;;;;;0.00;0.00;;;14.90;95.20;;;;;;5059263;28;20152;-75
2023/07/26 12:01:14;;;;;;;0.00;0.00;;;14.90;96.20;;;;;;5061417;28;20152;-75
2023/07/26 12:03:41;;;;;;;0.00;0.00;;;15.30;97.70;;;;;;5062164;28;20629;-78
2023/07/26 12:06:09;;;;;;;0.00;0.00;;;15.70;99.10;;;;;;5068308;28;20048;-78
2023/07/26 12:08:37;;;;;;;0.00;0.00;;;16.00;85.70;;;;;;5053301;28;20135;-77
2023/07/26 12:11:06;;;;;;;0.00;0.00;;;16.10;90.20;;;;;;5059886;28;20053;-77
2023/07/26 12:13:34;;;;;;;0.00;0.00;;;16.50;85.60;;;;;;5070130;28;20058;-76
2023/07/26 12:16:03;;;;;;;0.00;0.00;;;16.10;85.90;;;;;;5068332;28;20044;-78
2023/07/26 12:18:30;;;;;;;0.00;0.00;;;15.80;88.50;;;;;;5060818;28;20105;-78
2023/07/26 12:21:04;;;;;;;0.00;0.00;;;15.60;90.00;;;;;;5068732;28;20392;-77
2023/07/26 12:23:57;;;;;;;0.00;0.00;;;15.30;91.80;;;;;;5071980;28;20040;-79
2023/07/26 12:26:32;;;;;;;0.00;0.00;;;15.00;95.20;;;;;;5089630;28;20772;-78
2023/07/26 12:29:02;;;;;;;0.00;0.00;;;14.80;94.90;;;;;;5063902;28;20047;-77
2023/07/26 12:31:32;;;;;;;0.00;0.00;;;14.70;93.70;;;;;;5066328;28;20056;-76
2023/07/26 12:34:02;;;;;;;0.00;0.00;;;14.50;95.10;;;;;;5061159;28;20052;-76
2023/07/26 12:36:50;;;;;;;0.00;0.00;;;14.60;97.20;;;;;;5059048;28;20160;-76
2023/07/26 12:39:20;;;;;;;0.00;0.00;;;14.70;96.60;;;;;;5062444;28;20048;-77
2023/07/26 12:41:47;;;;;;;0.00;0.00;;;14.80;97.10;;;;;;5065073;28;20527;-76
2023/07/26 12:44:16;;;;;;;0.00;0.00;;;15.00;99.60;;;;;;5063511;28;20129;-76
2023/07/26 12:46:44;;;;;;;0.00;0.00;;;15.20;99.40;;;;;;5061249;28;20056;-76
2023/07/26 12:49:31;;;;;;;0.00;0.00;;;15.40;98.90;;;;;;5062019;28;20051;-76
2023/07/26 12:51:59;;;;;;;0.00;0.00;;;15.60;98.10;;;;;;5061587;28;20048;-77